Time;durP1;ratioP1;P1;durP2;ratioP2;P2;SDS_P1;SDS_P2;PMS_P1;PMS_P2;Temp;Humidity;BMP_temperature;BMP_pressure;BME280_temperature;BME280_humidity;BME280_pressure;Samples;Min_cycle;Max_cycle;Signal;HPM_P1;HPM_P2
2021/12/03 00:02:03;;;;;;;2.00;1.60;;;17.10;46.20;;;;;;5149560;27;46914;-18
2021/12/03 00:04:30;;;;;;;2.50;2.00;;;17.10;46.20;;;;;;5149359;27;46939;-23
2021/12/03 00:06:56;;;;;;;3.75;2.25;;;17.10;45.70;;;;;;5149386;27;47306;-19
2021/12/03 00:09:24;;;;;;;3.45;2.10;;;17.10;45.70;;;;;;5149546;27;46884;-19
2021/12/03 00:11:51;;;;;;;2.13;1.70;;;17.00;45.70;;;;;;5149005;27;46868;-16
2021/12/03 00:14:18;;;;;;;1.50;1.40;;;17.00;45.70;;;;;;5149537;27;46886;-16
2021/12/03 00:16:44;;;;;;;2.13;1.80;;;17.00;45.80;;;;;;5149338;27;46920;-16
2021/12/03 00:19:11;;;;;;;2.20;1.73;;;16.90;45.70;;;;;;5149001;27;46893;-16
2021/12/03 00:21:38;;;;;;;2.13;1.67;;;16.90;46.40;;;;;;5149228;27;47052;-20
2021/12/03 00:24:05;;;;;;;1.60;1.50;;;16.90;45.80;;;;;;5149016;27;46921;-20
2021/12/03 00:26:33;;;;;;;1.67;1.58;;;16.90;45.90;;;;;;5149178;27;46847;-20
2021/12/03 00:29:00;;;;;;;1.92;1.50;;;16.90;45.80;;;;;;5149180;27;46887;-20
2021/12/03 00:31:27;;;;;;;1.48;1.33;;;16.80;45.80;;;;;;5148913;27;47667;-20
2021/12/03 00:33:53;;;;;;;1.63;1.40;;;16.80;45.90;;;;;;5149189;27;47017;-20
2021/12/03 00:36:20;;;;;;;1.73;1.63;;;16.80;45.80;;;;;;5149034;27;46955;-16
2021/12/03 00:38:51;;;;;;;2.38;1.58;;;16.70;45.80;;;;;;5148747;27;47847;-17
2021/12/03 00:41:20;;;;;;;2.55;1.73;;;16.70;45.80;;;;;;5148840;27;46887;-16
2021/12/03 00:43:50;;;;;;;2.22;1.77;;;16.70;45.80;;;;;;5148717;27;46854;-16
2021/12/03 00:46:17;;;;;;;1.60;1.50;;;16.70;45.80;;;;;;5149381;27;46821;-15
2021/12/03 00:48:44;;;;;;;2.33;1.52;;;16.60;45.80;;;;;;5148563;27;47304;-16
2021/12/03 00:51:12;;;;;;;1.30;1.20;;;16.60;45.80;;;;;;5148273;27;46832;-15
2021/12/03 00:53:39;;;;;;;1.52;1.42;;;16.60;45.80;;;;;;5148566;27;46843;-15
2021/12/03 00:56:06;;;;;;;1.70;1.60;;;16.60;45.80;;;;;;5148787;27;46886;-20
2021/12/03 00:58:33;;;;;;;2.47;1.27;;;16.60;45.80;;;;;;5147426;27;46980;-17
2021/12/03 01:01:01;;;;;;;1.52;1.35;;;16.50;45.70;;;;;;5148461;27;46837;-15
2021/12/03 01:03:28;;;;;;;1.30;1.20;;;16.50;45.80;;;;;;5148609;27;46816;-16
2021/12/03 01:05:55;;;;;;;1.35;1.25;;;16.50;45.80;;;;;;5148814;27;47005;-16
2021/12/03 01:08:22;;;;;;;2.25;1.30;;;16.50;45.80;;;;;;5148458;27;49985;-17
2021/12/03 01:10:49;;;;;;;1.90;1.50;;;16.50;45.80;;;;;;5148409;27;47008;-20
2021/12/03 01:13:16;;;;;;;1.90;1.40;;;16.50;45.90;;;;;;5148598;27;46889;-20
2021/12/03 01:15:42;;;;;;;1.45;1.17;;;16.40;45.80;;;;;;5148289;27;47227;-20
2021/12/03 01:18:11;;;;;;;1.85;1.50;;;16.40;45.90;;;;;;5148465;27;47874;-20
2021/12/03 01:20:37;;;;;;;1.73;1.40;;;16.40;45.80;;;;;;5147945;27;46954;-25
2021/12/03 01:23:05;;;;;;;1.60;1.50;;;16.40;45.90;;;;;;5148130;27;46918;-20
2021/12/03 01:25:32;;;;;;;1.83;1.30;;;16.30;45.90;;;;;;5148497;27;47188;-20
2021/12/03 01:27:59;;;;;;;2.53;1.40;;;16.30;45.90;;;;;;5147797;27;49072;-20
2021/12/03 01:30:26;;;;;;;2.60;1.35;;;16.30;45.90;;;;;;5148137;27;46918;-17
2021/12/03 01:32:53;;;;;;;1.30;1.20;;;16.30;45.90;;;;;;5148238;27;46903;-21
2021/12/03 01:35:21;;;;;;;0.98;0.98;;;16.30;45.90;;;;;;5148365;27;46897;-17
2021/12/03 01:37:48;;;;;;;1.13;1.02;;;16.20;45.90;;;;;;5147942;27;46810;-17
2021/12/03 01:40:16;;;;;;;1.38;1.20;;;16.20;46.00;;;;;;5147967;27;47405;-17
2021/12/03 01:42:44;;;;;;;1.35;1.25;;;16.20;46.00;;;;;;5148001;27;46718;-17
2021/12/03 01:45:12;;;;;;;1.85;1.35;;;16.10;46.00;;;;;;5148054;27;46910;-16
2021/12/03 01:47:40;;;;;;;1.58;1.40;;;16.10;46.00;;;;;;5147628;27;47843;-17
2021/12/03 01:50:07;;;;;;;1.73;1.27;;;16.10;46.00;;;;;;5147777;27;46825;-17
2021/12/03 01:52:35;;;;;;;1.50;1.17;;;16.10;45.90;;;;;;5147585;27;46935;-21
2021/12/03 01:55:02;;;;;;;1.50;1.20;;;16.10;46.00;;;;;;5148061;27;46944;-16
2021/12/03 01:57:29;;;;;;;2.13;1.30;;;16.10;45.90;;;;;;5147490;27;48879;-17
2021/12/03 01:59:56;;;;;;;1.55;1.05;;;16.10;45.90;;;;;;5147749;27;46974;-21
2021/12/03 02:02:22;;;;;;;1.65;1.30;;;16.10;45.90;;;;;;5147707;27;46825;-21
2021/12/03 02:04:49;;;;;;;1.90;1.40;;;16.10;46.00;;;;;;5147903;27;46835;-21
2021/12/03 02:07:16;;;;;;;1.27;1.15;;;16.00;45.90;;;;;;5147256;27;48798;-21
2021/12/03 02:09:44;;;;;;;1.42;1.15;;;16.00;46.60;;;;;;5147030;27;46914;-21
2021/12/03 02:12:11;;;;;;;1.52;1.40;;;16.00;45.90;;;;;;5146753;27;46949;-16
2021/12/03 02:14:37;;;;;;;1.33;1.20;;;16.00;45.90;;;;;;5147719;27;46896;-20
2021/12/03 02:17:05;;;;;;;2.10;1.42;;;16.00;46.00;;;;;;5147362;27;48358;-17
2021/12/03 02:19:31;;;;;;;1.30;1.20;;;16.00;46.00;;;;;;5147500;27;47243;-17
2021/12/03 02:21:59;;;;;;;2.20;1.10;;;15.90;45.90;;;;;;5147392;27;46999;-17
2021/12/03 02:24:26;;;;;;;1.13;1.10;;;15.90;45.90;;;;;;5147753;27;47000;-16
2021/12/03 02:26:53;;;;;;;1.90;1.20;;;15.90;46.00;;;;;;5146856;27;47965;-21
2021/12/03 02:29:20;;;;;;;1.58;0.98;;;15.90;46.00;;;;;;5147144;27;46902;-21
2021/12/03 02:31:46;;;;;;;1.55;1.20;;;15.80;46.00;;;;;;5147449;27;46809;-21
2021/12/03 02:34:13;;;;;;;2.35;1.40;;;15.80;46.00;;;;;;5147297;27;46925;-17
2021/12/03 02:36:40;;;;;;;2.05;1.30;;;15.80;46.00;;;;;;5147001;27;48836;-17
2021/12/03 02:39:08;;;;;;;1.65;1.23;;;15.70;46.00;;;;;;5147385;27;46879;-18
2021/12/03 02:41:34;;;;;;;1.23;1.10;;;15.80;46.10;;;;;;5146972;27;47086;-21
2021/12/03 02:44:01;;;;;;;2.03;1.30;;;15.70;46.10;;;;;;5147604;27;47016;-17
2021/12/03 02:46:28;;;;;;;2.55;1.23;;;15.70;46.00;;;;;;5147126;27;48712;-17
2021/12/03 02:48:54;;;;;;;1.60;1.10;;;15.70;46.00;;;;;;5146729;27;46852;-17
2021/12/03 02:51:21;;;;;;;1.65;0.98;;;15.70;46.00;;;;;;5146923;27;46828;-17
2021/12/03 02:53:48;;;;;;;1.48;1.10;;;15.70;46.00;;;;;;5147201;27;47137;-17
2021/12/03 02:56:16;;;;;;;2.08;1.10;;;15.60;46.00;;;;;;5146383;27;48694;-17
2021/12/03 02:58:43;;;;;;;1.17;1.08;;;15.60;46.10;;;;;;5147060;27;47014;-17
2021/12/03 03:01:10;;;;;;;1.10;0.90;;;15.60;46.00;;;;;;5146940;27;46883;-22
2021/12/03 03:03:36;;;;;;;1.20;1.10;;;15.60;46.00;;;;;;5147155;27;46920;-17
2021/12/03 03:06:04;;;;;;;1.33;1.10;;;15.60;46.00;;;;;;5146490;27;47790;-16
2021/12/03 03:08:31;;;;;;;1.20;1.10;;;15.60;46.00;;;;;;5146569;27;46835;-17
2021/12/03 03:10:58;;;;;;;1.20;1.10;;;15.60;46.00;;;;;;5146355;27;46894;-21
2021/12/03 03:13:26;;;;;;;1.63;1.00;;;15.50;46.10;;;;;;5147221;27;47136;-17
2021/12/03 03:15:53;;;;;;;1.23;1.00;;;15.50;46.00;;;;;;5146799;27;48842;-17
2021/12/03 03:18:21;;;;;;;0.90;0.90;;;15.50;46.70;;;;;;5146772;27;47003;-21
2021/12/03 03:20:48;;;;;;;1.55;1.15;;;15.50;46.10;;;;;;5146440;27;46994;-21
2021/12/03 03:23:15;;;;;;;1.80;1.00;;;15.50;46.10;;;;;;5149572;27;46920;-21
2021/12/03 03:25:42;;;;;;;1.20;1.10;;;15.50;46.10;;;;;;5150221;27;47258;-17
2021/12/03 03:28:08;;;;;;;1.40;1.10;;;15.50;46.20;;;;;;5150231;27;46812;-18
2021/12/03 03:30:37;;;;;;;1.17;1.00;;;15.50;46.20;;;;;;5150261;27;46998;-16
2021/12/03 03:33:04;;;;;;;1.27;1.08;;;15.50;46.10;;;;;;5150353;27;47290;-22
2021/12/03 03:35:30;;;;;;;1.10;1.00;;;15.50;46.10;;;;;;5150056;27;47122;-21
2021/12/03 03:37:57;;;;;;;0.73;0.70;;;15.50;46.10;;;;;;5149667;27;46735;-22
2021/12/03 03:40:24;;;;;;;1.10;1.00;;;15.40;46.00;;;;;;5150121;27;47006;-21
2021/12/03 03:42:50;;;;;;;1.42;1.17;;;15.40;46.00;;;;;;5149991;27;46854;-17
2021/12/03 03:45:19;;;;;;;2.10;1.20;;;15.40;46.00;;;;;;5149621;27;46908;-21
2021/12/03 03:47:47;;;;;;;1.20;1.10;;;15.40;46.10;;;;;;5149635;27;46926;-22
2021/12/03 03:50:15;;;;;;;1.10;1.00;;;15.30;46.10;;;;;;5149962;27;46805;-21
2021/12/03 03:52:42;;;;;;;1.38;1.10;;;15.30;46.10;;;;;;5149998;27;46853;-16
2021/12/03 03:55:09;;;;;;;1.05;1.02;;;15.30;46.10;;;;;;5149682;27;48911;-21
2021/12/03 03:57:36;;;;;;;1.52;1.20;;;15.30;46.20;;;;;;5149424;27;46751;-22
2021/12/03 04:00:04;;;;;;;0.93;0.93;;;15.30;46.20;;;;;;5149761;27;46838;-22
2021/12/03 04:02:30;;;;;;;1.45;0.90;;;15.30;46.10;;;;;;5149638;27;47046;-16
2021/12/03 04:04:58;;;;;;;1.10;0.98;;;15.20;46.10;;;;;;5149575;27;47840;-18
2021/12/03 04:07:25;;;;;;;1.05;0.95;;;15.20;46.10;;;;;;5149258;27;46984;-22
2021/12/03 04:09:52;;;;;;;1.10;0.90;;;15.20;46.10;;;;;;5149566;27;46977;-17
2021/12/03 04:12:18;;;;;;;1.15;0.90;;;15.30;46.20;;;;;;5149388;27;46870;-17
2021/12/03 04:14:46;;;;;;;2.63;1.17;;;15.20;46.20;;;;;;5149088;27;48793;-17
2021/12/03 04:17:13;;;;;;;1.45;1.13;;;15.20;46.20;;;;;;5149092;27;46870;-17
2021/12/03 04:19:40;;;;;;;1.42;1.00;;;15.30;46.20;;;;;;5149493;27;46867;-18
2021/12/03 04:22:08;;;;;;;1.00;0.90;;;15.20;46.10;;;;;;5149769;27;47324;-16
2021/12/03 04:24:34;;;;;;;0.90;0.90;;;15.20;46.20;;;;;;5149134;27;46802;-17
2021/12/03 04:27:01;;;;;;;0.77;0.77;;;15.20;46.10;;;;;;5148824;27;46871;-17
2021/12/03 04:29:28;;;;;;;0.98;0.98;;;15.20;46.20;;;;;;5149050;27;47061;-17
2021/12/03 04:31:54;;;;;;;0.85;0.80;;;15.20;46.20;;;;;;5148944;27;46897;-17
2021/12/03 04:34:21;;;;;;;1.27;1.00;;;15.10;46.20;;;;;;5149382;27;48789;-17
2021/12/03 04:36:48;;;;;;;1.17;1.08;;;15.10;46.20;;;;;;5149042;27;47053;-21
2021/12/03 04:39:16;;;;;;;1.02;0.93;;;15.10;46.20;;;;;;5148968;27;46890;-17
2021/12/03 04:41:43;;;;;;;1.08;0.85;;;15.10;46.20;;;;;;5148928;27;46864;-18
2021/12/03 04:44:09;;;;;;;0.95;0.90;;;15.10;46.20;;;;;;5149024;27;48904;-17
2021/12/03 04:46:36;;;;;;;1.30;0.90;;;15.10;46.20;;;;;;5148822;27;46876;-17
2021/12/03 04:49:03;;;;;;;1.50;0.70;;;15.10;46.20;;;;;;5148852;27;46932;-17
2021/12/03 04:51:29;;;;;;;1.42;1.10;;;15.10;46.20;;;;;;5148776;27;46883;-16
2021/12/03 04:53:56;;;;;;;0.70;0.70;;;15.10;46.30;;;;;;5148886;27;48153;-17
2021/12/03 04:56:24;;;;;;;1.00;0.90;;;15.10;46.30;;;;;;5148453;27;47043;-21
2021/12/03 04:58:51;;;;;;;0.90;0.90;;;15.00;46.30;;;;;;5148643;27;46844;-21
2021/12/03 05:01:18;;;;;;;1.02;0.98;;;15.00;46.30;;;;;;5148922;27;47055;-22
2021/12/03 05:03:44;;;;;;;1.02;0.88;;;15.00;46.30;;;;;;5148503;27;48124;-22
2021/12/03 05:06:15;;;;;;;1.33;1.05;;;15.00;46.40;;;;;;5148395;27;46898;-22
2021/12/03 05:08:42;;;;;;;1.08;0.90;;;15.00;46.40;;;;;;5148869;27;46815;-18
2021/12/03 05:11:09;;;;;;;1.77;1.00;;;15.00;46.40;;;;;;5148639;27;46837;-18
2021/12/03 05:13:37;;;;;;;0.70;0.70;;;15.00;46.40;;;;;;5148391;27;47089;-22
2021/12/03 05:16:04;;;;;;;1.50;0.82;;;15.00;47.00;;;;;;5148090;27;46935;-22
2021/12/03 05:18:32;;;;;;;0.82;0.80;;;15.00;46.50;;;;;;5148192;27;46990;-22
2021/12/03 05:21:00;;;;;;;0.82;0.80;;;15.00;46.50;;;;;;5148446;27;47043;-17
2021/12/03 05:23:28;;;;;;;0.80;0.80;;;15.00;46.40;;;;;;5147939;27;48607;-17
2021/12/03 05:25:54;;;;;;;1.20;0.90;;;14.90;46.40;;;;;;5148067;27;46849;-21
2021/12/03 05:28:22;;;;;;;0.70;0.70;;;14.90;46.50;;;;;;5148282;27;46888;-21
2021/12/03 05:30:50;;;;;;;1.08;0.90;;;14.90;46.50;;;;;;5148119;27;47285;-17
2021/12/03 05:33:17;;;;;;;0.75;0.75;;;14.90;46.50;;;;;;5148102;27;48557;-17
2021/12/03 05:35:44;;;;;;;1.05;0.73;;;14.90;46.40;;;;;;5148182;27;46892;-21
2021/12/03 05:38:10;;;;;;;0.98;0.77;;;14.90;46.50;;;;;;5147932;27;46820;-17
2021/12/03 05:40:37;;;;;;;0.75;0.70;;;14.90;46.40;;;;;;5147984;27;47169;-18
2021/12/03 05:43:04;;;;;;;1.33;0.90;;;14.80;46.30;;;;;;5148042;27;46893;-20
2021/12/03 05:45:33;;;;;;;0.85;0.85;;;14.80;46.50;;;;;;5147131;27;47090;-16
2021/12/03 05:48:01;;;;;;;0.70;0.70;;;14.80;46.40;;;;;;5147970;27;46915;-16
2021/12/03 05:50:28;;;;;;;1.33;1.00;;;14.80;46.40;;;;;;5147937;27;46868;-21
2021/12/03 05:52:55;;;;;;;0.90;0.90;;;14.80;46.40;;;;;;5147356;27;46901;-21
2021/12/03 05:55:21;;;;;;;1.00;0.80;;;14.80;46.50;;;;;;5147831;27;46892;-16
2021/12/03 05:57:48;;;;;;;1.13;0.88;;;14.80;46.50;;;;;;5147768;27;46838;-16
2021/12/03 06:00:17;;;;;;;0.77;0.77;;;14.80;46.50;;;;;;5147813;27;46867;-21
2021/12/03 06:02:44;;;;;;;1.50;0.70;;;14.80;46.50;;;;;;5147485;27;49178;-16
2021/12/03 06:05:12;;;;;;;1.70;0.98;;;14.80;46.50;;;;;;5147429;27;47148;-21
2021/12/03 06:07:39;;;;;;;0.98;0.98;;;14.70;46.50;;;;;;5147452;27;46948;-17
2021/12/03 06:10:06;;;;;;;0.75;0.75;;;14.70;46.50;;;;;;5147759;27;46900;-17
2021/12/03 06:12:33;;;;;;;0.80;0.80;;;14.70;46.50;;;;;;5147114;27;46975;-21
2021/12/03 06:14:59;;;;;;;1.48;1.08;;;14.80;46.50;;;;;;5147648;27;47053;-21
2021/12/03 06:17:26;;;;;;;1.63;0.98;;;14.80;46.50;;;;;;5147458;27;46884;-16
2021/12/03 06:19:53;;;;;;;1.10;0.90;;;14.70;46.50;;;;;;5147724;27;46954;-21
2021/12/03 06:22:21;;;;;;;1.20;1.00;;;14.70;46.50;;;;;;5147279;27;49080;-16
2021/12/03 06:24:47;;;;;;;0.90;0.90;;;14.70;46.50;;;;;;5147190;27;46814;-17
2021/12/03 06:27:14;;;;;;;0.80;0.80;;;14.70;46.50;;;;;;5147403;27;46895;-18
2021/12/03 06:29:41;;;;;;;1.17;0.93;;;14.70;46.60;;;;;;5146987;27;47090;-22
2021/12/03 06:32:10;;;;;;;1.10;1.00;;;14.70;46.60;;;;;;5146974;27;46878;-17
2021/12/03 06:34:37;;;;;;;1.10;1.00;;;14.70;46.50;;;;;;5146694;27;46937;-22
2021/12/03 06:37:04;;;;;;;1.00;0.90;;;14.70;47.10;;;;;;5147003;27;46873;-17
2021/12/03 06:39:32;;;;;;;2.20;1.25;;;14.70;46.50;;;;;;5147586;27;46886;-17
2021/12/03 06:41:59;;;;;;;1.63;1.00;;;14.60;46.40;;;;;;5146912;27;49129;-21
2021/12/03 06:44:25;;;;;;;1.00;0.90;;;14.60;46.50;;;;;;5147057;27;46940;-23
2021/12/03 06:46:53;;;;;;;1.30;1.08;;;14.60;46.50;;;;;;5146919;27;46952;-17
2021/12/03 06:49:20;;;;;;;1.08;1.05;;;14.60;46.50;;;;;;5147000;27;46895;-22
2021/12/03 06:51:48;;;;;;;1.50;1.20;;;14.60;46.60;;;;;;5146512;27;48775;-23
2021/12/03 06:54:24;;;;;;;1.20;1.00;;;14.60;46.50;;;;;;5146907;27;46957;-22
2021/12/03 06:56:52;;;;;;;0.95;0.90;;;14.60;46.60;;;;;;5146985;27;46950;-17
2021/12/03 06:59:19;;;;;;;2.50;0.90;;;14.60;46.60;;;;;;5150466;27;46904;-23
2021/12/03 07:01:46;;;;;;;1.38;0.95;;;14.60;46.60;;;;;;5150054;27;48798;-23
2021/12/03 07:04:12;;;;;;;1.15;0.98;;;14.50;46.50;;;;;;5150525;27;46844;-22
2021/12/03 07:06:39;;;;;;;1.42;1.00;;;14.50;46.60;;;;;;5149829;27;46918;-17
2021/12/03 07:09:06;;;;;;;0.98;0.90;;;14.50;46.40;;;;;;5149508;27;47027;-22
2021/12/03 07:11:33;;;;;;;1.67;1.00;;;14.50;46.60;;;;;;5149835;27;47030;-22
2021/12/03 07:14:01;;;;;;;1.23;1.13;;;14.50;47.10;;;;;;5153954;27;47173;-23
2021/12/03 07:16:28;;;;;;;1.20;1.10;;;14.50;46.60;;;;;;5170694;27;46915;-23
2021/12/03 07:18:54;;;;;;;0.90;0.90;;;14.50;46.60;;;;;;5169806;27;47079;-23
2021/12/03 07:21:21;;;;;;;1.33;1.10;;;14.50;46.50;;;;;;5170044;27;48937;-22
2021/12/03 07:23:50;;;;;;;1.00;1.00;;;14.50;46.50;;;;;;5162361;27;46855;-22
2021/12/03 07:26:17;;;;;;;1.38;1.00;;;14.50;46.50;;;;;;5149081;27;46966;-22
2021/12/03 07:28:43;;;;;;;1.00;0.90;;;14.50;46.60;;;;;;5154102;27;46941;-22
2021/12/03 07:31:12;;;;;;;1.00;1.00;;;14.50;46.60;;;;;;5153325;27;47883;-22
2021/12/03 07:33:38;;;;;;;1.27;1.05;;;14.50;46.60;;;;;;5162959;27;46994;-23
2021/12/03 07:36:06;;;;;;;1.55;1.02;;;14.50;46.60;;;;;;5167919;27;47125;-22
2021/12/03 07:38:33;;;;;;;1.00;0.90;;;14.40;46.50;;;;;;5148714;27;46969;-23
2021/12/03 07:41:00;;;;;;;1.27;1.00;;;14.40;46.50;;;;;;5158619;27;48214;-22
2021/12/03 07:43:26;;;;;;;1.27;0.95;;;14.40;46.60;;;;;;5161264;27;46843;-22
2021/12/03 07:45:53;;;;;;;1.08;1.08;;;14.40;46.60;;;;;;5155074;27;46959;-18
2021/12/03 07:48:23;;;;;;;1.50;1.20;;;14.40;46.60;;;;;;5150640;27;46820;-23
2021/12/03 07:50:50;;;;;;;1.55;1.30;;;14.40;46.20;;;;;;5161576;27;46966;-18
2021/12/03 07:53:19;;;;;;;1.35;1.20;;;14.40;46.60;;;;;;5158263;27;46840;-18
2021/12/03 07:55:46;;;;;;;1.27;1.17;;;14.40;46.10;;;;;;5163192;27;47011;-18
2021/12/03 07:58:13;;;;;;;1.15;1.00;;;14.40;46.60;;;;;;5170741;27;47062;-19
2021/12/03 08:00:40;;;;;;;1.00;1.00;;;14.40;46.60;;;;;;5169584;27;48071;-17
2021/12/03 08:03:07;;;;;;;1.48;1.20;;;14.40;46.50;;;;;;5166271;27;47464;-19
2021/12/03 08:05:35;;;;;;;1.20;1.10;;;14.50;46.50;;;;;;5158025;27;46773;-17
2021/12/03 08:08:02;;;;;;;1.20;1.08;;;14.70;46.20;;;;;;5158151;27;46868;-18
2021/12/03 08:10:28;;;;;;;1.25;1.15;;;15.00;45.80;;;;;;5158504;27;48076;-19
2021/12/03 08:12:56;;;;;;;1.40;1.17;;;15.20;45.30;;;;;;5159921;27;46946;-18
2021/12/03 08:15:23;;;;;;;1.77;1.30;;;15.40;44.60;;;;;;5158984;27;46860;-23
2021/12/03 08:17:51;;;;;;;2.30;1.20;;;15.60;44.40;;;;;;5157864;27;46856;-23
2021/12/03 08:20:18;;;;;;;1.33;1.00;;;15.70;44.10;;;;;;5158396;27;46844;-18
2021/12/03 08:22:46;;;;;;;1.00;1.00;;;15.80;43.80;;;;;;5159873;27;46973;-23
2021/12/03 08:25:13;;;;;;;1.23;1.13;;;15.90;43.70;;;;;;5157167;27;46911;-23
2021/12/03 08:27:41;;;;;;;1.00;0.98;;;16.00;43.60;;;;;;5157750;27;46946;-23
2021/12/03 08:30:09;;;;;;;1.20;1.10;;;16.10;43.50;;;;;;5159040;27;48058;-23
2021/12/03 08:32:36;;;;;;;1.20;1.05;;;16.10;43.40;;;;;;5157502;27;46909;-21
2021/12/03 08:35:03;;;;;;;1.23;1.10;;;16.20;43.30;;;;;;5155190;27;47197;-22
2021/12/03 08:37:30;;;;;;;1.83;1.15;;;16.20;43.20;;;;;;5166596;27;47362;-22
2021/12/03 08:39:58;;;;;;;1.30;1.20;;;16.20;43.20;;;;;;5167980;27;47017;-22
2021/12/03 08:42:25;;;;;;;1.70;1.10;;;16.20;43.20;;;;;;5159509;27;46948;-21
2021/12/03 08:44:51;;;;;;;1.10;1.00;;;16.20;43.10;;;;;;5147193;27;46933;-17
2021/12/03 08:47:18;;;;;;;0.80;0.80;;;16.20;43.00;;;;;;5147112;27;47116;-17
2021/12/03 08:49:49;;;;;;;0.82;0.80;;;16.20;43.10;;;;;;5146972;27;48082;-17
2021/12/03 08:55:07;;;;;;;1.35;1.20;;;16.20;43.10;;;;;;5070080;27;47051;-17
2021/12/03 08:57:34;;;;;;;1.50;0.93;;;16.20;43.10;;;;;;5148763;27;47120;-16
2021/12/03 09:00:03;;;;;;;2.08;0.95;;;16.20;43.20;;;;;;5148320;27;47837;-20
2021/12/03 09:02:30;;;;;;;0.98;0.95;;;16.20;43.20;;;;;;5147961;27;47011;-21
2021/12/03 09:04:57;;;;;;;1.20;1.05;;;16.20;43.30;;;;;;5148741;27;46741;-20
2021/12/03 09:07:23;;;;;;;1.10;0.90;;;16.20;43.40;;;;;;5148381;27;46855;-16
2021/12/03 09:09:50;;;;;;;0.65;0.65;;;16.10;43.40;;;;;;5148014;27;47735;-21
2021/12/03 09:12:18;;;;;;;1.50;0.90;;;16.10;43.50;;;;;;5148301;27;46911;-17
2021/12/03 09:14:49;;;;;;;1.48;0.95;;;16.10;43.40;;;;;;5148174;27;46877;-16
2021/12/03 09:17:30;;;;;;;0.80;0.80;;;16.10;43.50;;;;;;5148519;27;47121;-17
2021/12/03 09:20:02;;;;;;;0.80;0.80;;;16.00;43.50;;;;;;5147091;27;48383;-17
2021/12/03 09:22:36;;;;;;;0.90;0.90;;;16.00;43.60;;;;;;5148186;27;46805;-16
2021/12/03 09:25:03;;;;;;;1.38;0.90;;;16.00;43.60;;;;;;5148536;27;46851;-16
2021/12/03 09:27:31;;;;;;;0.82;0.80;;;16.00;43.70;;;;;;5148306;27;46824;-16
2021/12/03 09:29:58;;;;;;;0.90;0.80;;;16.00;43.80;;;;;;5147533;27;48795;-22
2021/12/03 09:32:28;;;;;;;0.80;0.80;;;16.00;43.90;;;;;;5147675;27;46825;-21
2021/12/03 09:34:55;;;;;;;1.27;0.75;;;16.00;43.90;;;;;;5147856;27;46915;-22
2021/12/03 09:37:22;;;;;;;0.88;0.80;;;16.00;43.90;;;;;;5148141;27;47252;-17
2021/12/03 09:39:49;;;;;;;1.30;0.75;;;15.90;43.60;;;;;;5148246;27;46961;-23
2021/12/03 09:42:18;;;;;;;0.80;0.80;;;15.90;43.80;;;;;;5147771;27;46871;-18
2021/12/03 09:45:00;;;;;;;0.82;0.82;;;15.90;43.80;;;;;;5148048;27;46808;-18
2021/12/03 09:47:26;;;;;;;1.92;0.85;;;15.90;43.60;;;;;;5148092;27;47235;-22
2021/12/03 09:49:55;;;;;;;1.08;0.73;;;15.90;43.90;;;;;;5147994;27;47941;-19
2021/12/03 09:52:28;;;;;;;0.80;0.80;;;15.90;43.70;;;;;;5147953;27;46897;-17
2021/12/03 09:54:59;;;;;;;1.38;0.85;;;15.90;43.90;;;;;;5148039;27;46797;-21
2021/12/03 09:57:33;;;;;;;0.80;0.80;;;15.90;44.00;;;;;;5147868;27;47045;-21
2021/12/03 10:00:10;;;;;;;0.80;0.80;;;15.90;44.00;;;;;;5147512;27;49457;-17
2021/12/03 10:13:39;;;;;;;0.98;0.75;;;15.90;43.90;;;;;;5166403;27;46878;-17
2021/12/03 10:16:17;;;;;;;0.77;0.70;;;16.10;43.80;;;;;;5156081;27;46934;-16
2021/12/03 10:18:48;;;;;;;0.70;0.70;;;16.20;43.20;;;;;;5146345;27;47160;-17
2021/12/03 10:21:23;;;;;;;1.05;0.98;;;16.40;43.10;;;;;;5146656;27;49064;-16
2021/12/03 10:32:26;;;;;;;1.17;0.80;;;17.00;41.80;;;;;;5145524;27;48765;-16
2021/12/03 10:43:38;;;;;;;1.02;0.85;;;17.30;41.10;;;;;;5126346;27;47091;-17
2021/12/03 10:49:02;;;;;;;2.45;0.90;;;17.40;41.10;;;;;;5133268;27;47059;-17
2021/12/03 10:51:39;;;;;;;1.50;0.90;;;17.40;40.80;;;;;;5150793;27;46731;-16
2021/12/03 10:54:11;;;;;;;2.17;0.95;;;17.40;40.80;;;;;;5150541;27;48127;-17
2021/12/03 10:56:49;;;;;;;1.40;0.73;;;17.50;40.80;;;;;;5150300;27;46826;-22
2021/12/03 11:02:45;;;;;;;0.80;0.80;;;17.50;40.80;;;;;;5162975;27;47101;-21
2021/12/03 11:08:16;;;;;;;2.22;0.93;;;17.50;40.70;;;;;;5170770;27;47201;-22
2021/12/03 11:14:33;;;;;;;1.33;0.88;;;17.40;41.00;;;;;;5147552;27;47147;-22
2021/12/03 11:17:12;;;;;;;1.30;0.73;;;17.30;41.20;;;;;;5149042;27;47191;-22
2021/12/03 11:31:22;;;;;;;0.82;0.80;;;17.50;40.10;;;;;;5168082;27;46981;-22
2021/12/03 12:28:01;;;;;;;6.53;1.60;;;16.80;41.20;;;;;;5169919;27;47019;-16
2021/12/03 12:42:33;;;;;;;24.98;4.25;;;16.50;41.80;;;;;;5103445;27;46948;-17
2021/12/03 12:45:16;;;;;;;27.88;4.25;;;16.50;42.00;;;;;;5169248;27;46937;-16
2021/12/03 13:57:55;;;;;;;22.00;5.30;;;17.10;40.80;;;;;;5167460;27;47023;-17
2021/12/03 14:37:41;;;;;;;10.80;2.72;;;16.60;41.40;;;;;;5146220;27;46907;-21
2021/12/03 14:40:20;;;;;;;7.32;2.50;;;16.60;41.60;;;;;;5147267;27;46830;-21
2021/12/03 14:42:54;;;;;;;7.22;2.30;;;16.50;41.60;;;;;;5146733;27;47346;-22
2021/12/03 14:45:33;;;;;;;8.57;2.25;;;16.50;41.60;;;;;;5147566;27;46886;-21
2021/12/03 14:53:56;;;;;;;4.07;2.10;;;16.40;41.60;;;;;;5146067;27;47040;-18
2021/12/03 14:56:25;;;;;;;4.55;2.22;;;16.40;41.80;;;;;;5145431;27;47013;-17
2021/12/03 14:59:07;;;;;;;6.45;2.30;;;16.30;41.80;;;;;;5147461;27;46871;-17
2021/12/03 15:01:43;;;;;;;3.45;1.88;;;16.30;42.00;;;;;;5146532;27;46862;-17
2021/12/03 15:04:28;;;;;;;3.63;2.08;;;16.20;41.90;;;;;;5146711;27;46816;-17
2021/12/03 15:07:03;;;;;;;3.20;1.80;;;16.20;42.00;;;;;;5146368;27;47061;-16
2021/12/03 15:09:32;;;;;;;4.50;1.83;;;16.20;42.00;;;;;;5147252;27;46955;-16
2021/12/03 15:21:04;;;;;;;2.78;1.63;;;16.50;41.70;;;;;;5149807;27;47415;-18
2021/12/03 15:23:45;;;;;;;3.47;1.73;;;16.70;41.40;;;;;;5149926;27;49102;-22
2021/12/03 15:26:25;;;;;;;2.30;1.67;;;16.80;41.10;;;;;;5150145;27;46871;-16
2021/12/03 15:29:28;;;;;;;2.90;1.75;;;17.00;40.90;;;;;;5150332;27;46784;-17
2021/12/03 15:31:59;;;;;;;11.35;2.45;;;17.00;40.60;;;;;;5149423;27;47269;-16
2021/12/03 15:57:01;;;;;;;4.40;1.50;;;17.60;39.60;;;;;;5149205;27;48098;-21
2021/12/03 16:05:03;;;;;;;6.80;1.60;;;17.70;39.40;;;;;;5147008;27;46336;-21
2021/12/03 16:07:55;;;;;;;2.25;1.15;;;17.80;39.30;;;;;;5149255;27;49107;-21
2021/12/03 16:10:26;;;;;;;2.35;1.30;;;17.90;39.20;;;;;;5149328;27;47407;-17
2021/12/03 16:13:05;;;;;;;1.52;0.98;;;17.90;39.20;;;;;;5149228;27;47171;-17
2021/12/03 16:15:59;;;;;;;2.15;1.95;;;17.90;39.10;;;;;;5149514;27;47228;-21
2021/12/03 16:21:40;;;;;;;2.42;1.33;;;17.90;38.90;;;;;;5148031;27;47086;-17
2021/12/03 16:27:49;;;;;;;5.03;1.40;;;18.00;39.00;;;;;;5149133;27;47468;-21
2021/12/03 16:44:04;;;;;;;0.90;0.90;;;18.00;38.80;;;;;;5146060;27;47011;-21
2021/12/03 16:46:47;;;;;;;1.33;1.08;;;18.00;38.70;;;;;;5148547;27;46974;-16
2021/12/03 16:52:00;;;;;;;2.25;1.05;;;18.00;38.60;;;;;;5168266;27;46776;-17
2021/12/03 16:54:30;;;;;;;2.50;1.40;;;18.10;38.60;;;;;;5169525;27;47165;-17
2021/12/03 16:56:58;;;;;;;1.02;0.90;;;18.10;38.50;;;;;;5167802;27;46901;-17
2021/12/03 16:59:25;;;;;;;1.98;1.00;;;18.10;38.10;;;;;;5167980;27;47076;-17
2021/12/03 17:02:01;;;;;;;2.08;1.20;;;18.10;38.20;;;;;;5168022;27;48771;-17
2021/12/03 17:04:46;;;;;;;1.75;1.13;;;18.20;38.30;;;;;;5167677;27;46915;-21
2021/12/03 17:10:33;;;;;;;1.50;0.90;;;18.20;38.30;;;;;;5167897;27;46815;-21
2021/12/03 17:13:14;;;;;;;0.88;0.88;;;18.20;38.30;;;;;;5168954;27;46907;-22
2021/12/03 17:16:07;;;;;;;2.70;1.02;;;18.30;38.40;;;;;;5169319;27;47514;-21
2021/12/03 17:30:11;;;;;;;1.02;0.98;;;18.30;38.20;;;;;;5125858;27;46948;-22
2021/12/03 17:49:31;;;;;;;7.03;1.30;;;18.30;37.90;;;;;;5149869;27;46979;-16
2021/12/03 17:52:10;;;;;;;1.52;1.40;;;18.40;37.80;;;;;;5168532;27;46906;-17
2021/12/03 17:57:25;;;;;;;1.38;0.95;;;18.40;37.90;;;;;;5167737;27;46942;-22
2021/12/03 17:59:53;;;;;;;2.47;1.05;;;18.40;37.90;;;;;;5168470;27;47474;-17
2021/12/03 18:02:29;;;;;;;1.77;1.20;;;18.40;37.90;;;;;;5168630;27;46865;-16
2021/12/03 18:05:07;;;;;;;1.88;1.45;;;18.40;37.90;;;;;;5169075;27;46932;-21
2021/12/03 18:07:44;;;;;;;3.22;1.20;;;18.40;37.80;;;;;;5168537;27;48205;-21
2021/12/03 18:13:14;;;;;;;3.00;1.13;;;18.50;37.90;;;;;;5121394;27;47118;-18
2021/12/03 18:46:32;;;;;;;4.13;1.50;;;18.80;39.10;;;;;;5093145;27;47079;-16
2021/12/03 18:49:20;;;;;;;5.03;1.35;;;18.90;39.30;;;;;;5145832;27;47156;-17
2021/12/03 18:52:02;;;;;;;7.47;1.52;;;19.00;38.60;;;;;;5145305;27;47200;-18
2021/12/03 18:54:35;;;;;;;6.45;1.42;;;19.10;38.60;;;;;;5150968;27;46940;-18
2021/12/03 18:57:10;;;;;;;1.70;1.25;;;19.20;39.00;;;;;;5150670;27;46843;-17
2021/12/03 18:59:50;;;;;;;6.13;1.77;;;19.20;38.40;;;;;;5153027;27;47023;-17